Time;durP1;ratioP1;P1;durP2;ratioP2;P2;SDS_P1;SDS_P2;PMS_P1;PMS_P2;Temp;Humidity;BMP_temperature;BMP_pressure;BME280_temperature;BME280_humidity;BME280_pressure;Samples;Min_cycle;Max_cycle;Signal;HPM_P1;HPM_P2
2022/08/04 00:00:24;;;;;;;;;3.00;1.67;;;;;29.75;53.15;100937.25;5036513;28;45248;-73
2022/08/04 00:02:58;;;;;;;;;2.00;2.00;;;;;29.71;53.56;100947.47;5036498;28;45782;-73
2022/08/04 00:05:51;;;;;;;;;2.67;2.00;;;;;29.67;53.54;100943.22;5051814;28;45959;-71
2022/08/04 00:08:44;;;;;;;;;2.00;2.00;;;;;29.64;53.47;100939.81;5051775;28;45416;-72
2022/08/04 00:11:14;;;;;;;;;2.00;2.00;;;;;29.62;53.89;100939.06;5039185;28;45454;-72
2022/08/04 00:13:42;;;;;;;;;2.00;2.00;;;;;29.61;53.89;100940.88;5040075;28;45424;-71
2022/08/04 00:16:09;;;;;;;;;2.00;2.00;;;;;29.58;54.15;100932.94;5021255;28;46368;-72
2022/08/04 00:18:41;;;;;;;;;3.67;2.33;;;;;29.60;54.05;100939.16;5039904;28;45441;-73
2022/08/04 00:21:11;;;;;;;;;1.67;1.67;;;;;29.59;53.85;100945.56;5039599;28;45422;-71
2022/08/04 00:23:37;;;;;;;;;6.00;3.00;;;;;29.55;54.06;100943.16;5055508;28;45377;-73
2022/08/04 00:26:03;;;;;;;;;3.33;2.00;;;;;29.53;54.40;100954.16;5039324;28;45994;-72
2022/08/04 00:28:28;;;;;;;;;3.00;2.00;;;;;29.47;54.22;100947.22;5038194;28;69944;-72
2022/08/04 00:30:54;;;;;;;;;4.00;2.00;;;;;29.41;54.43;100950.38;5039621;28;45254;-74
2022/08/04 00:33:19;;;;;;;;;3.00;2.00;;;;;29.39;54.79;100949.56;5039907;28;45372;-72
2022/08/04 00:35:49;;;;;;;;;4.33;3.00;;;;;29.32;55.08;100939.22;5039156;28;46456;-72
2022/08/04 00:38:16;;;;;;;;;3.00;2.00;;;;;29.28;54.79;100943.09;5054743;28;45439;-72
2022/08/04 00:41:22;;;;;;;;;2.33;2.00;;;;;29.23;55.36;100952.41;5039645;28;45299;-71
2022/08/04 00:44:12;;;;;;;;;2.00;2.00;;;;;29.17;55.40;100957.41;5038448;28;45542;-72
2022/08/04 00:47:03;;;;;;;;;4.67;2.33;;;;;29.10;55.63;100962.38;5038934;28;46519;-72
2022/08/04 00:49:31;;;;;;;;;2.00;2.00;;;;;29.04;55.87;100949.16;5039065;28;45462;-71
2022/08/04 00:52:08;;;;;;;;;2.00;2.00;;;;;28.99;56.56;100951.31;5039275;28;45266;-73
2022/08/04 00:54:45;;;;;;;;;6.00;2.00;;;;;28.94;55.95;100942.56;5039324;28;45387;-71
2022/08/04 00:57:30;;;;;;;;;2.67;2.00;;;;;28.94;56.47;100948.00;5054673;28;45570;-73
2022/08/04 01:00:09;;;;;;;;;2.00;2.00;;;;;28.89;56.38;100942.81;5037653;28;45523;-73
2022/08/04 01:02:44;;;;;;;;;4.33;3.00;;;;;28.84;56.65;100941.38;5039760;28;45222;-71
2022/08/04 01:05:28;;;;;;;;;4.00;2.00;;;;;28.85;56.80;100959.44;5039464;28;45588;-72
2022/08/04 01:07:59;;;;;;;;;1.00;1.00;;;;;28.80;57.50;100957.00;5038615;28;45489;-72
2022/08/04 01:10:39;;;;;;;;;2.00;2.00;;;;;28.78;57.15;100952.63;5039008;28;45415;-72
2022/08/04 01:13:19;;;;;;;;;3.33;1.67;;;;;28.75;57.66;100953.69;5039281;28;45280;-72
2022/08/04 01:15:50;;;;;;;;;3.00;3.00;;;;;28.73;57.60;100950.22;5038881;28;45494;-73
2022/08/04 01:18:32;;;;;;;;;6.67;2.67;;;;;28.74;58.16;100951.06;5038782;28;45291;-73
2022/08/04 01:21:23;;;;;;;;;4.00;3.00;;;;;28.72;58.36;100953.91;5037794;28;45463;-72
2022/08/04 01:23:54;;;;;;;;;3.67;2.67;;;;;28.69;58.32;100943.22;5054400;28;45440;-73
2022/08/04 01:26:48;;;;;;;;;3.00;3.00;;;;;28.66;58.74;100954.28;5038573;28;45501;-73
2022/08/04 01:29:15;;;;;;;;;3.00;3.00;;;;;28.60;59.42;100955.53;5038366;28;46451;-73
2022/08/04 01:31:55;;;;;;;;;5.00;2.67;;;;;28.53;58.95;100953.28;5038582;28;45569;-72
2022/08/04 01:34:21;;;;;;;;;4.00;3.67;;;;;28.48;59.20;100950.84;5054325;28;45302;-73
2022/08/04 01:37:03;;;;;;;;;5.67;4.00;;;;;28.44;59.66;100941.13;5038504;28;45244;-71
2022/08/04 01:39:43;;;;;;;;;3.33;2.67;;;;;28.36;59.69;100932.59;5054022;28;46041;-71
2022/08/04 01:42:10;;;;;;;;;4.67;3.00;;;;;28.38;59.91;100941.53;5053818;28;45431;-73
2022/08/04 01:44:38;;;;;;;;;5.33;3.00;;;;;28.36;59.96;100940.75;5038604;28;45291;-73
2022/08/04 01:47:04;;;;;;;;;3.33;2.67;;;;;28.36;60.00;100936.19;5038228;28;45393;-73
2022/08/04 01:49:30;;;;;;;;;5.00;3.00;;;;;28.36;60.42;100935.31;5036806;28;46473;-71
2022/08/04 01:51:56;;;;;;;;;4.00;3.00;;;;;28.35;60.07;100941.72;5038427;28;45315;-72
2022/08/04 01:54:22;;;;;;;;;3.00;3.00;;;;;28.33;60.21;100939.09;5038395;28;45154;-73
2022/08/04 01:56:52;;;;;;;;;4.00;2.67;;;;;28.33;61.64;100941.81;5053942;28;45267;-72
2022/08/04 01:59:19;;;;;;;;;4.00;3.00;;;;;28.31;61.97;100929.25;5053572;28;45640;-73
2022/08/04 02:01:45;;;;;;;;;3.00;3.00;;;;;28.30;62.20;100930.25;5038644;28;45370;-73
2022/08/04 02:04:14;;;;;;;;;5.00;3.00;;;;;28.28;62.00;100926.72;5038114;28;45279;-72
2022/08/04 02:06:48;;;;;;;;;3.00;3.00;;;;;28.27;61.84;100931.28;5038361;28;45577;-72
2022/08/04 02:09:36;;;;;;;;;2.00;2.00;;;;;28.23;62.14;100935.19;5038036;28;46486;-72
2022/08/04 02:12:25;;;;;;;;;3.67;2.00;;;;;28.18;62.18;100938.19;5053581;28;45516;-71
2022/08/04 02:14:56;;;;;;;;;4.00;2.33;;;;;28.13;62.36;100924.00;5038119;28;45335;-70
2022/08/04 02:17:29;;;;;;;;;5.33;3.00;;;;;28.11;63.03;100920.47;5053190;28;45646;-72
2022/08/04 02:19:54;;;;;;;;;3.00;3.00;;;;;28.06;62.85;100906.31;5036136;28;47373;-73
2022/08/04 02:22:21;;;;;;;;;5.00;3.33;;;;;28.00;63.05;100909.41;5037752;28;45304;-72
2022/08/04 02:24:49;;;;;;;;;3.00;3.00;;;;;27.95;63.87;100903.38;5038196;28;45377;-71
2022/08/04 02:27:15;;;;;;;;;3.33;3.33;;;;;27.93;63.62;100913.47;5030455;28;45343;-73
2022/08/04 02:29:57;;;;;;;;;3.00;3.00;;;;;27.88;63.70;100891.16;5036482;28;49742;-71
2022/08/04 02:32:26;;;;;;;;;2.00;2.00;;;;;27.89;64.08;100899.19;5037376;28;45520;-72
2022/08/04 02:35:07;;;;;;;;;2.67;2.67;;;;;27.87;64.08;100905.69;5038051;28;45228;-72
2022/08/04 02:37:33;;;;;;;;;3.00;3.00;;;;;27.84;64.42;100905.88;5037650;28;45327;-73
2022/08/04 02:40:01;;;;;;;;;5.00;3.00;;;;;27.80;64.49;100912.44;5037411;28;46435;-72
2022/08/04 02:42:31;;;;;;;;;3.00;3.00;;;;;27.79;65.01;100913.41;5053144;28;45316;-72
2022/08/04 02:44:59;;;;;;;;;6.67;5.00;;;;;27.76;65.43;100914.47;5037402;28;45284;-71
2022/08/04 02:47:26;;;;;;;;;5.00;3.67;;;;;27.73;65.51;100919.22;5037397;28;45346;-71
2022/08/04 02:49:52;;;;;;;;;4.00;3.00;;;;;27.71;65.47;100924.72;5035985;28;46674;-72
2022/08/04 02:52:19;;;;;;;;;3.00;3.00;;;;;27.69;65.28;100930.19;5037540;28;45444;-73
2022/08/04 02:54:46;;;;;;;;;6.33;5.00;;;;;27.67;65.71;100924.00;5037410;28;45801;-71
2022/08/04 02:57:12;;;;;;;;;6.33;6.33;;;;;27.69;66.36;100935.63;5053063;28;45367;-72
2022/08/04 02:59:58;;;;;;;;;4.00;4.00;;;;;27.66;66.05;100938.53;5037133;28;46061;-73
2022/08/04 03:02:34;;;;;;;;;3.33;3.33;;;;;27.64;66.58;100935.00;5037148;28;45445;-73
2022/08/04 03:05:09;;;;;;;;;5.00;4.00;;;;;27.59;66.72;100937.16;5053045;28;45320;-71
2022/08/04 03:07:40;;;;;;;;;6.00;3.00;;;;;27.54;66.83;100936.53;5037377;28;45371;-72
2022/08/04 03:10:11;;;;;;;;;4.67;4.67;;;;;27.51;66.69;100931.28;5052817;28;45693;-73
2022/08/04 03:13:01;;;;;;;;;5.00;3.67;;;;;27.49;66.87;100929.63;5036986;28;45630;-72
2022/08/04 03:15:58;;;;;;;;;2.00;2.00;;;;;27.45;67.60;100920.78;5036783;28;45539;-73
2022/08/04 03:18:45;;;;;;;;;3.00;3.00;;;;;27.40;68.78;100928.31;5052814;28;45258;-71
2022/08/04 03:21:29;;;;;;;;;3.33;3.33;;;;;27.38;69.50;100933.84;5036307;28;46564;-73
2022/08/04 03:24:19;;;;;;;;;2.00;2.00;;;;;27.34;69.47;100926.84;5036774;28;45339;-73
2022/08/04 03:27:09;;;;;;;;;5.00;3.00;;;;;27.30;69.57;100924.38;5036881;28;45568;-72
2022/08/04 03:30:00;;;;;;;;;4.33;3.00;;;;;27.28;69.37;100923.59;5025484;28;45428;-71
2022/08/04 03:32:43;;;;;;;;;3.67;2.67;;;;;27.26;69.40;100922.81;5013634;28;46924;-73
2022/08/04 03:35:42;;;;;;;;;3.00;3.00;;;;;27.24;69.62;100925.63;5036847;28;45273;-72
2022/08/04 03:39:06;;;;;;;;;4.00;3.00;;;;;27.20;69.21;100928.56;5036688;28;45311;-72
2022/08/04 03:41:37;;;;;;;;;3.00;3.00;;;;;27.17;69.56;100932.34;4964984;28;45455;-72
2022/08/04 03:44:39;;;;;;;;;6.00;4.00;;;;;27.17;69.92;100926.06;5017324;28;46221;-72
2022/08/04 03:47:26;;;;;;;;;5.00;3.00;;;;;27.17;69.69;100917.94;5039913;28;45304;-73
2022/08/04 03:50:28;;;;;;;;;4.00;4.00;;;;;27.18;69.41;100922.38;5040163;28;45464;-72
2022/08/04 03:53:19;;;;;;;;;3.00;3.00;;;;;27.18;69.66;100900.69;5040421;28;45339;-72
2022/08/04 03:56:11;;;;;;;;;4.00;4.00;;;;;27.19;69.84;100867.19;5040098;28;45728;-72
2022/08/04 03:58:55;;;;;;;;;4.00;3.00;;;;;27.18;69.52;100865.44;5040054;28;45458;-73
2022/08/04 04:01:43;;;;;;;;;4.00;4.00;;;;;27.18;69.47;100906.13;5039933;28;45415;-72
2022/08/04 04:04:14;;;;;;;;;3.67;3.00;;;;;27.15;69.53;100897.19;5039973;28;45254;-71
2022/08/04 04:07:14;;;;;;;;;3.00;3.00;;;;;27.14;69.25;100897.28;5040008;28;46701;-72
2022/08/04 04:09:52;;;;;;;;;4.00;4.00;;;;;27.14;69.31;100927.09;4978896;28;45393;-72
2022/08/04 04:12:45;;;;;;;;;3.00;3.00;;;;;27.13;69.55;100925.34;5028766;28;45315;-72
2022/08/04 04:15:25;;;;;;;;;4.00;4.00;;;;;27.12;69.39;100937.16;5039946;28;45785;-71
2022/08/04 04:18:47;;;;;;;;;5.00;4.00;;;;;27.09;69.54;100934.59;5055215;28;45692;-70
2022/08/04 04:21:34;;;;;;;;;3.00;3.00;;;;;27.05;69.88;100950.13;5013683;28;45293;-74
2022/08/04 04:24:37;;;;;;;;;3.67;3.67;;;;;26.99;69.86;100955.03;5039587;28;45241;-71
2022/08/04 04:27:21;;;;;;;;;3.00;3.00;;;;;26.94;70.51;100962.53;5039438;28;45733;-73
2022/08/04 04:29:49;;;;;;;;;5.00;5.00;;;;;26.86;70.23;100944.00;5055379;28;45421;-72
2022/08/04 04:32:38;;;;;;;;;4.67;3.00;;;;;26.82;70.31;100931.56;5039148;28;45319;-70
2022/08/04 04:35:28;;;;;;;;;4.67;4.00;;;;;26.77;69.71;100923.69;5055124;28;45328;-73
2022/08/04 04:38:05;;;;;;;;;2.67;2.67;;;;;26.80;70.07;100936.22;5055195;28;45905;-71
2022/08/04 04:41:09;;;;;;;;;4.00;3.00;;;;;26.77;70.26;100961.63;5039306;28;46700;-72
2022/08/04 04:43:44;;;;;;;;;6.00;5.00;;;;;26.75;70.16;100968.09;5037768;28;45429;-73
2022/08/04 04:46:14;;;;;;;;;4.67;3.00;;;;;26.67;70.52;100973.03;5039398;28;45432;-72
2022/08/04 04:48:53;;;;;;;;;4.33;3.00;;;;;26.63;70.64;100988.56;5055317;28;45296;-71
2022/08/04 04:51:32;;;;;;;;;4.00;4.00;;;;;26.57;70.22;100997.03;5039165;28;46551;-72
2022/08/04 04:54:00;;;;;;;;;3.00;3.00;;;;;26.54;70.90;101019.75;5054708;28;45332;-70
2022/08/04 04:57:05;;;;;;;;;3.67;3.00;;;;;26.52;70.86;101020.75;5039351;28;45560;-72
2022/08/04 04:59:34;;;;;;;;;2.33;2.00;;;;;26.38;70.46;100991.69;5016988;28;45336;-73
2022/08/04 05:02:11;;;;;;;;;6.00;3.00;;;;;26.28;71.16;100961.50;5039197;28;46591;-72
2022/08/04 05:04:45;;;;;;;;;4.00;4.00;;;;;26.32;70.75;100989.28;5039028;28;45450;-71
2022/08/04 05:07:41;;;;;;;;;5.67;3.00;;;;;26.28;70.91;101010.22;5039265;28;45323;-72
2022/08/04 05:10:09;;;;;;;;;8.33;4.00;;;;;26.24;71.05;100999.63;5039208;28;45379;-73
2022/08/04 05:13:11;;;;;;;;;5.00;3.00;;;;;26.21;70.75;101002.53;5038759;28;45504;-72
2022/08/04 05:15:40;;;;;;;;;6.00;4.67;;;;;26.10;70.96;100984.13;5038484;28;45400;-72
2022/08/04 05:18:06;;;;;;;;;2.67;2.00;;;;;26.11;71.59;100984.03;5054738;28;45462;-72
2022/08/04 05:20:41;;;;;;;;;4.67;1.33;;;;;26.07;71.22;100982.44;5054230;28;45519;-72
2022/08/04 05:23:16;;;;;;;;;6.00;4.00;;;;;26.04;71.82;100984.41;5038950;28;45529;-73
2022/08/04 05:26:00;;;;;;;;;3.33;3.33;;;;;26.04;71.84;100993.41;5054110;28;45385;-72
2022/08/04 05:28:29;;;;;;;;;3.00;3.00;;;;;26.03;72.25;101012.44;5054182;28;45317;-71
2022/08/04 05:31:16;;;;;;;;;6.67;4.00;;;;;26.01;72.58;101020.63;5038767;28;46154;-71
2022/08/04 05:34:08;;;;;;;;;4.00;3.00;;;;;25.98;73.09;101017.19;5038172;28;45954;-72
2022/08/04 05:36:44;;;;;;;;;4.33;2.67;;;;;25.93;73.17;101014.72;5032751;28;45495;-70
2022/08/04 05:39:15;;;;;;;;;5.67;5.00;;;;;25.88;73.44;101000.53;5054409;28;45642;-72
2022/08/04 05:41:42;;;;;;;;;4.00;4.00;;;;;25.89;73.66;100996.91;5054205;28;45567;-73
2022/08/04 05:44:08;;;;;;;;;4.00;2.33;;;;;25.93;73.28;101005.72;5054003;28;45755;-72
2022/08/04 05:46:34;;;;;;;;;5.33;4.00;;;;;25.90;74.11;101000.47;5053565;28;45344;-73
2022/08/04 05:48:59;;;;;;;;;3.00;3.00;;;;;25.89;74.21;100996.91;5054401;28;45256;-73
2022/08/04 05:51:26;;;;;;;;;3.00;2.00;;;;;25.90;73.50;100978.84;5052927;28;56356;-71
2022/08/04 05:53:53;;;;;;;;;4.67;3.00;;;;;25.91;74.25;100980.59;5053931;28;64463;-72
2022/08/04 05:56:19;;;;;;;;;5.33;3.00;;;;;25.91;74.06;100976.03;5038028;28;45215;-72
2022/08/04 05:58:45;;;;;;;;;5.00;5.00;;;;;25.90;73.89;100977.00;5054198;28;45282;-73
2022/08/04 06:01:12;;;;;;;;;5.00;5.00;;;;;25.92;73.95;100976.91;5053791;28;45676;-72
2022/08/04 06:03:38;;;;;;;;;4.67;3.00;;;;;25.94;74.28;100980.41;5053652;28;69438;-71
2022/08/04 06:06:04;;;;;;;;;4.33;2.67;;;;;25.93;73.78;100966.00;5038448;28;64984;-73
2022/08/04 06:08:30;;;;;;;;;6.67;3.67;;;;;25.95;74.38;100987.59;5054552;28;61147;-70
2022/08/04 06:10:58;;;;;;;;;3.00;3.00;;;;;25.93;74.10;101005.72;5037662;28;45380;-71
2022/08/04 06:13:33;;;;;;;;;3.67;3.33;;;;;25.94;74.32;101010.16;5053535;28;45232;-72
2022/08/04 06:16:01;;;;;;;;;5.00;2.67;;;;;25.90;73.62;100992.38;5037664;28;45383;-71
2022/08/04 06:18:28;;;;;;;;;3.00;3.00;;;;;25.93;73.51;100990.38;5053673;28;45512;-70
2022/08/04 06:20:55;;;;;;;;;5.00;3.00;;;;;25.95;73.80;100988.47;5037506;28;45508;-73
2022/08/04 06:23:22;;;;;;;;;2.00;2.00;;;;;26.01;74.17;100998.97;5053327;28;46788;-71
2022/08/04 06:25:50;;;;;;;;;5.00;3.67;;;;;26.07;73.40;101000.50;5053067;28;45324;-71
2022/08/04 06:28:16;;;;;;;;;2.67;2.67;;;;;26.10;73.54;101003.94;5052905;28;45278;-73
2022/08/04 06:30:46;;;;;;;;;2.33;2.33;;;;;26.11;73.67;100994.00;5036677;28;45550;-72
2022/08/04 06:33:23;;;;;;;;;7.00;2.00;;;;;26.16;73.67;100996.47;5036273;28;47862;-72
2022/08/04 06:35:50;;;;;;;;;3.33;3.00;;;;;26.19;73.72;100990.88;5037774;28;45486;-71
2022/08/04 06:38:15;;;;;;;;;3.00;3.00;;;;;26.21;72.87;101005.22;5053089;28;45370;-72
2022/08/04 06:40:41;;;;;;;;;5.33;2.00;;;;;26.26;73.26;101005.84;5037268;28;61812;-71
2022/08/04 06:43:06;;;;;;;;;1.67;1.67;;;;;26.31;73.17;101006.47;5036478;28;70130;-72
2022/08/04 06:45:37;;;;;;;;;6.67;4.00;;;;;26.38;73.10;101007.94;5036526;28;64189;-72
2022/08/04 06:48:04;;;;;;;;;6.00;3.00;;;;;26.42;73.46;101020.41;5053054;28;45352;-73
2022/08/04 06:50:30;;;;;;;;;2.00;2.00;;;;;26.44;73.12;101013.06;5036418;28;45502;-72
2022/08/04 06:52:56;;;;;;;;;6.33;3.33;;;;;26.51;72.62;101019.88;5052748;28;46774;-72
2022/08/04 06:55:23;;;;;;;;;2.00;2.00;;;;;26.56;72.93;101019.66;5033005;28;45977;-70
2022/08/04 06:57:49;;;;;;;;;4.00;3.00;;;;;26.61;72.41;101010.31;5049428;28;45456;-73
2022/08/04 07:00:16;;;;;;;;;1.00;1.00;;;;;26.70;71.94;101016.22;5037623;28;45539;-72
2022/08/04 07:02:47;;;;;;;;;3.00;2.00;;;;;26.75;72.49;101011.44;5019237;28;47380;-70
2022/08/04 07:05:13;;;;;;;;;2.00;2.00;;;;;26.80;72.20;101015.66;5037290;28;45318;-71
2022/08/04 07:07:39;;;;;;;;;2.67;2.00;;;;;26.85;71.79;101016.28;5019387;28;45332;-71
2022/08/04 07:10:06;;;;;;;;;3.00;2.00;;;;;26.87;72.34;101014.34;5036311;28;45393;-71
2022/08/04 07:12:32;;;;;;;;;4.00;3.00;;;;;26.93;72.03;101031.25;5052306;28;46837;-71
2022/08/04 07:14:58;;;;;;;;;1.00;1.00;;;;;26.89;72.24;101031.38;5036111;28;45343;-71
2022/08/04 07:17:24;;;;;;;;;2.00;2.00;;;;;26.93;72.10;101039.38;5052276;28;45295;-72
2022/08/04 07:19:51;;;;;;;;;2.33;1.67;;;;;26.94;72.14;101039.28;5051275;28;45623;-72
2022/08/04 07:22:17;;;;;;;;;4.00;1.00;;;;;26.92;71.86;101027.66;5047493;28;46396;-70
2022/08/04 07:24:42;;;;;;;;;2.67;2.00;;;;;26.93;72.45;101026.69;5052609;28;45429;-70
2022/08/04 07:27:08;;;;;;;;;3.67;2.33;;;;;26.95;71.78;101029.31;5036598;28;45470;-69
2022/08/04 07:29:34;;;;;;;;;1.00;1.00;;;;;26.92;72.16;101033.06;5036420;28;61463;-70
2022/08/04 07:32:00;;;;;;;;;3.00;3.00;;;;;26.90;72.40;101027.75;5051614;28;46419;-70
2022/08/04 07:34:26;;;;;;;;;6.00;3.33;;;;;26.96;71.93;101031.97;5035615;28;46146;-71
2022/08/04 07:36:53;;;;;;;;;3.00;3.00;;;;;26.96;72.15;101036.50;5052049;28;55384;-70
2022/08/04 07:39:20;;;;;;;;;2.00;2.00;;;;;26.97;72.25;101055.38;5037042;28;45200;-72
2022/08/04 07:41:46;;;;;;;;;5.00;1.67;;;;;26.98;72.17;101069.81;5036438;28;46481;-71
2022/08/04 07:44:14;;;;;;;;;3.00;3.00;;;;;26.99;72.97;101061.59;5035753;28;45245;-72
2022/08/04 07:46:40;;;;;;;;;3.00;3.00;;;;;26.99;73.73;101053.47;5035214;28;45519;-70
2022/08/04 07:49:06;;;;;;;;;2.00;1.33;;;;;27.06;73.98;101071.16;5036882;28;45269;-71
2022/08/04 07:51:34;;;;;;;;;8.67;2.00;;;;;27.08;73.60;101063.84;5034285;28;66509;-71
2022/08/04 07:54:02;;;;;;;;;3.00;1.33;;;;;27.08;74.34;101066.56;5036395;28;45391;-71
2022/08/04 07:56:27;;;;;;;;;2.00;2.00;;;;;27.07;74.48;101070.22;5051803;28;45333;-71
2022/08/04 07:58:53;;;;;;;;;3.33;2.00;;;;;27.07;74.37;101058.53;5036702;28;45476;-72
2022/08/04 08:01:18;;;;;;;;;4.00;2.00;;;;;27.04;74.44;101064.94;5038573;28;45889;-72
2022/08/04 08:03:44;;;;;;;;;3.00;2.00;;;;;27.07;74.57;101078.38;5055709;28;45465;-72
2022/08/04 08:06:10;;;;;;;;;2.00;2.00;;;;;27.06;75.33;101082.00;5040948;28;45333;-71
2022/08/04 08:08:38;;;;;;;;;3.33;2.00;;;;;27.00;74.84;101079.59;5040189;28;45299;-71
2022/08/04 08:11:05;;;;;;;;;3.00;2.33;;;;;26.99;74.79;101099.53;5054773;28;46371;-70
2022/08/04 08:13:31;;;;;;;;;3.00;2.00;;;;;26.96;75.03;101121.41;5052502;28;45278;-73
2022/08/04 08:15:56;;;;;;;;;2.00;2.00;;;;;26.90;75.66;101113.59;5051700;28;45276;-72
2022/08/04 08:18:21;;;;;;;;;2.00;2.00;;;;;26.83;75.33;101104.88;5051173;28;62874;-73
2022/08/04 08:20:47;;;;;;;;;1.00;1.00;;;;;26.73;75.74;101089.19;5050668;28;67912;-72
2022/08/04 08:23:12;;;;;;;;;2.33;1.00;;;;;26.74;76.23;101101.78;5036299;28;45415;-72
2022/08/04 08:25:38;;;;;;;;;4.33;1.00;;;;;26.72;76.38;101101.88;5036277;28;45425;-72
2022/08/04 08:28:04;;;;;;;;;3.00;2.00;;;;;26.73;76.33;101111.75;5051201;28;55605;-71
2022/08/04 08:30:31;;;;;;;;;5.67;1.00;;;;;26.75;77.20;101115.25;5036212;28;45706;-70
2022/08/04 08:32:56;;;;;;;;;2.00;2.00;;;;;26.78;76.75;101117.78;5040015;28;45310;-72
2022/08/04 08:35:24;;;;;;;;;2.00;0.00;;;;;26.79;76.86;101118.66;5038941;28;59826;-72
2022/08/04 08:37:57;;;;;;;;;1.00;1.00;;;;;26.82;76.54;101110.41;5039811;28;45533;-71
2022/08/04 08:40:30;;;;;;;;;1.00;1.00;;;;;26.84;77.31;101097.63;5038124;28;47853;-71
2022/08/04 08:43:13;;;;;;;;;2.00;2.00;;;;;26.84;77.15;101071.41;5055081;28;45498;-71
2022/08/04 08:45:47;;;;;;;;;1.00;1.00;;;;;26.91;77.64;101088.25;5027518;28;45463;-72
2022/08/04 08:48:57;;;;;;;;;1.00;1.00;;;;;26.98;78.14;101078.81;5039623;28;45423;-72
2022/08/04 08:51:23;;;;;;;;;1.00;1.00;;;;;27.06;78.48;101081.09;5173568;22;47133;-71
2022/08/04 08:54:24;;;;;;;;;2.00;2.00;;;;;27.15;77.85;101088.78;5021020;28;45384;-71
2022/08/04 08:57:11;;;;;;;;;3.00;1.00;;;;;27.20;78.11;101097.53;5038245;28;45348;-72
2022/08/04 08:59:45;;;;;;;;;2.33;1.00;;;;;27.20;77.15;101108.38;5021219;28;45478;-72
2022/08/04 09:02:39;;;;;;;;;1.00;1.00;;;;;27.22;77.90;101108.28;5039095;28;45728;-71
2022/08/04 09:05:29;;;;;;;;;1.00;1.00;;;;;27.26;77.79;101112.59;5037893;28;45390;-72
2022/08/04 09:08:13;;;;;;;;;0.67;0.67;;;;;27.29;77.70;101109.72;5037930;28;45399;-71
2022/08/04 09:10:45;;;;;;;;;2.33;2.00;;;;;27.33;77.45;101101.34;5039071;28;45380;-71
2022/08/04 09:13:20;;;;;;;;;2.00;0.00;;;;;27.36;77.48;101097.59;5038944;28;47590;-70
2022/08/04 09:16:00;;;;;;;;;5.67;1.67;;;;;27.41;77.43;101103.63;5037193;28;45510;-71
2022/08/04 09:18:37;;;;;;;;;1.00;1.00;;;;;27.43;77.56;101112.56;5039107;28;45497;-71
2022/08/04 09:21:12;;;;;;;;;1.00;1.00;;;;;27.48;77.29;101106.88;5037377;28;45391;-72
2022/08/04 09:24:07;;;;;;;;;0.00;0.00;;;;;27.53;77.11;101110.22;5038766;28;45852;-71
2022/08/04 09:27:00;;;;;;;;;0.00;0.00;;;;;27.59;77.38;101116.19;5017684;28;45230;-71
2022/08/04 09:29:38;;;;;;;;;0.00;0.00;;;;;27.56;76.69;101119.06;5024742;28;45538;-71
2022/08/04 09:32:11;;;;;;;;;0.00;0.00;;;;;27.50;76.99;101119.41;5039048;28;45420;-73
2022/08/04 09:34:45;;;;;;;;;0.67;0.67;;;;;27.52;77.72;101122.91;5020779;28;46668;-71
2022/08/04 09:37:27;;;;;;;;;2.00;0.00;;;;;27.54;78.07;101129.13;5038446;28;45445;-71
2022/08/04 09:40:03;;;;;;;;;2.00;2.00;;;;;27.61;77.74;101133.25;5038791;28;45309;-72
2022/08/04 09:43:06;;;;;;;;;2.00;0.00;;;;;27.72;77.00;101139.97;5037910;28;45332;-70
2022/08/04 09:45:45;;;;;;;;;1.00;0.00;;;;;27.73;77.40;101128.13;5038169;28;45912;-72
2022/08/04 09:48:16;;;;;;;;;1.00;1.00;;;;;27.74;77.07;101135.31;5037256;28;45313;-72
2022/08/04 09:50:44;;;;;;;;;2.33;0.00;;;;;27.75;77.59;101124.41;5020564;28;45328;-71
2022/08/04 09:53:12;;;;;;;;;1.00;1.00;;;;;27.80;76.65;101137.69;5038138;28;45235;-72
2022/08/04 09:56:02;;;;;;;;;0.00;0.00;;;;;27.74;76.52;101125.31;5038176;28;45822;-71
2022/08/04 09:58:27;;;;;;;;;0.67;0.00;;;;;27.74;76.89;101119.91;5038302;28;45296;-71
2022/08/04 10:01:01;;;;;;;;;0.00;0.00;;;;;27.83;76.98;101118.53;5038163;28;45518;-71
2022/08/04 10:03:32;;;;;;;;;0.00;0.00;;;;;27.91;77.15;101119.84;5038413;28;45348;-72
2022/08/04 10:06:03;;;;;;;;;0.67;0.67;;;;;28.03;76.62;101126.41;5038052;28;46806;-70
2022/08/04 10:08:43;;;;;;;;;0.33;0.33;;;;;28.13;76.32;101124.06;5038216;28;45422;-71
2022/08/04 10:11:15;;;;;;;;;1.00;1.00;;;;;28.19;75.90;101129.13;5037125;28;45531;-70
2022/08/04 10:13:57;;;;;;;;;0.00;0.00;;;;;28.25;75.50;101131.47;5036855;28;45464;-71
2022/08/04 10:16:51;;;;;;;;;0.00;0.00;;;;;28.19;75.01;101124.56;5036563;28;45570;-71
2022/08/04 10:19:25;;;;;;;;;0.00;0.00;;;;;28.17;75.28;101129.19;5037348;28;45428;-71
2022/08/04 10:22:15;;;;;;;;;1.00;0.00;;;;;28.24;75.44;101120.72;5038174;28;45359;-71
2022/08/04 10:24:53;;;;;;;;;0.33;0.00;;;;;28.24;75.21;101128.88;5015274;28;45447;-71
2022/08/04 10:27:24;;;;;;;;;4.33;1.00;;;;;28.14;75.05;101134.81;5030958;28;45836;-70
2022/08/04 10:29:51;;;;;;;;;1.00;1.00;;;;;28.00;75.08;101121.16;5036595;28;45360;-72
2022/08/04 10:32:33;;;;;;;;;2.67;1.00;;;;;27.95;75.58;101123.25;5035565;28;66727;-72
2022/08/04 10:35:02;;;;;;;;;1.67;0.67;;;;;27.89;76.03;101126.31;5020345;28;45555;-71
2022/08/04 10:37:31;;;;;;;;;2.00;0.00;;;;;27.86;75.96;101113.81;5037631;28;45421;-71
2022/08/04 10:42:56;;;;;;;;;0.00;0.00;;;;;27.89;76.74;101101.88;5036984;28;45245;-71
2022/08/04 10:45:25;;;;;;;;;0.00;0.00;;;;;27.94;76.51;101091.63;5036148;28;45600;-71
2022/08/04 10:47:59;;;;;;;;;1.00;1.00;;;;;27.96;76.89;101100.56;5019714;28;48105;-71
2022/08/04 10:50:26;;;;;;;;;0.00;0.00;;;;;28.03;76.68;101095.69;5019505;28;45613;-72
2022/08/04 10:53:00;;;;;;;;;1.00;1.00;;;;;28.09;76.27;101096.19;5019189;28;51376;-72
2022/08/04 10:55:46;;;;;;;;;0.67;0.67;;;;;28.12;75.35;101104.13;5008467;28;45422;-72
2022/08/04 10:58:19;;;;;;;;;1.00;1.00;;;;;28.18;75.13;101105.66;5036009;28;46873;-71
2022/08/04 11:00:44;;;;;;;;;0.00;0.00;;;;;28.26;75.19;101097.91;5019773;28;45359;-70
2022/08/04 11:03:19;;;;;;;;;1.00;1.00;;;;;28.36;74.78;101096.44;5036096;28;45367;-72
2022/08/04 11:05:54;;;;;;;;;0.33;0.33;;;;;28.39;74.80;101099.00;5036302;28;45381;-72
2022/08/04 11:08:33;;;;;;;;;1.00;1.00;;;;;28.46;74.48;101096.78;5037222;28;45886;-72
2022/08/04 11:11:11;;;;;;;;;0.00;0.00;;;;;28.48;74.31;101088.53;5035909;28;45355;-71
2022/08/04 11:13:43;;;;;;;;;1.33;1.33;;;;;28.47;74.29;101094.94;5019350;28;45305;-72
2022/08/04 11:16:14;;;;;;;;;2.00;1.00;;;;;28.50;74.30;101101.06;5036996;28;45494;-72
2022/08/04 11:18:53;;;;;;;;;2.33;2.00;;;;;28.53;73.89;101094.56;5035501;28;45749;-71
2022/08/04 11:21:20;;;;;;;;;2.33;1.00;;;;;28.58;73.48;101085.16;5006445;28;45428;-71
2022/08/04 11:24:17;;;;;;;;;2.00;2.00;;;;;28.62;73.34;101083.16;5035823;28;45278;-71
2022/08/04 11:26:52;;;;;;;;;1.00;1.00;;;;;28.66;73.60;101084.72;5019374;28;45342;-72
2022/08/04 11:29:47;;;;;;;;;1.67;1.00;;;;;28.72;73.37;101081.63;5018906;28;45989;-71
2022/08/04 11:32:17;;;;;;;;;3.00;1.00;;;;;28.75;72.99;101086.00;5036777;28;45245;-71
2022/08/04 11:34:47;;;;;;;;;2.00;2.00;;;;;28.82;72.63;101093.69;5019312;28;45376;-71
2022/08/04 11:37:23;;;;;;;;;2.00;2.00;;;;;28.85;72.49;101101.63;5035596;28;45390;-72
2022/08/04 11:39:59;;;;;;;;;3.00;2.00;;;;;28.86;72.74;101081.63;5035704;28;46800;-72
2022/08/04 11:42:26;;;;;;;;;1.67;1.67;;;;;28.96;72.53;101087.41;5035594;28;45510;-72
2022/08/04 11:44:59;;;;;;;;;0.00;0.00;;;;;29.05;71.80;101091.44;5036908;28;45325;-72
2022/08/04 11:48:00;;;;;;;;;1.00;1.00;;;;;29.14;71.68;101096.31;5018807;28;45403;-71
2022/08/04 11:50:32;;;;;;;;;6.00;3.00;;;;;29.18;70.81;101097.84;5011416;28;47791;-72
2022/08/04 11:52:58;;;;;;;;;2.00;1.00;;;;;29.26;71.42;101092.81;5036226;28;45436;-71
2022/08/04 11:55:26;;;;;;;;;3.33;2.33;;;;;29.40;70.91;101092.81;5007846;28;45257;-72
2022/08/04 11:57:52;;;;;;;;;1.00;1.00;;;;;29.57;70.25;101093.63;5018656;28;45193;-72
2022/08/04 12:00:18;;;;;;;;;0.00;0.00;;;;;29.69;69.84;101103.69;5035243;28;45558;-72
2022/08/04 12:03:14;;;;;;;;;1.67;1.00;;;;;29.74;68.53;101091.53;5035399;28;45892;-72